createdAt,value
2018-03-31T00:00:43.635Z,2.17
2018-03-31T00:03:15.109Z,2.00
2018-03-31T00:05:46.185Z,1.67
2018-03-31T00:08:17.376Z,3.03
2018-03-31T00:10:48.629Z,3.27
2018-03-31T00:15:51.006Z,3.60
2018-03-31T00:18:21.954Z,1.60
2018-03-31T00:20:52.889Z,2.97
2018-03-31T00:25:28.271Z,3.17
2018-03-31T00:27:59.657Z,2.90
2018-03-31T00:33:00.830Z,3.22
2018-03-31T00:35:32.185Z,1.73
2018-03-31T00:38:02.431Z,2.10
2018-03-31T00:40:33.990Z,2.60
2018-03-31T00:43:05.286Z,1.60
2018-03-31T00:45:35.845Z,2.67
2018-03-31T00:48:07.226Z,1.47
2018-03-31T00:50:37.442Z,4.82
2018-03-31T00:53:07.842Z,2.03
2018-03-31T00:57:26.875Z,2.73
2018-03-31T00:59:57.285Z,2.73
2018-03-31T01:02:28.298Z,2.08
2018-03-31T01:04:58.758Z,2.08
2018-03-31T01:09:26.008Z,2.33
2018-03-31T01:11:56.280Z,2.13
2018-03-31T01:14:26.654Z,1.90
2018-03-31T01:19:26.659Z,3.33
2018-03-31T01:24:27.443Z,3.50
2018-03-31T01:27:42.927Z,3.10
2018-03-31T01:30:13.264Z,3.80
2018-03-31T01:32:43.671Z,2.75
2018-03-31T01:37:43.664Z,4.65
2018-03-31T01:42:43.671Z,3.50
2018-03-31T01:45:13.585Z,3.20
2018-03-31T01:47:43.797Z,3.53
2018-03-31T01:50:14.203Z,3.80
2018-03-31T01:52:44.577Z,3.20
2018-03-31T01:57:54.852Z,3.30
2018-03-31T02:00:25.847Z,4.30
2018-03-31T02:02:56.297Z,3.77
2018-03-31T02:05:26.748Z,4.00
2018-03-31T02:07:57.753Z,4.20
2018-03-31T02:10:28.287Z,3.80
2018-03-31T02:14:17.637Z,4.45
2018-03-31T02:16:48.767Z,4.80
2018-03-31T02:19:19.256Z,5.17
2018-03-31T02:21:49.835Z,3.33
2018-03-31T02:24:20.295Z,4.30
2018-03-31T02:26:50.439Z,3.05
2018-03-31T02:29:20.823Z,4.32
2018-03-31T02:31:51.275Z,4.20
2018-03-31T02:34:21.431Z,4.45
2018-03-31T02:38:03.104Z,3.10
2018-03-31T02:40:33.590Z,4.77
2018-03-31T02:45:02.871Z,4.70
2018-03-31T02:47:33.284Z,3.10
2018-03-31T02:50:03.627Z,3.17
2018-03-31T02:52:33.958Z,3.93
2018-03-31T02:55:05.305Z,3.43
2018-03-31T02:57:36.711Z,3.97
2018-03-31T03:02:38.296Z,2.50
2018-03-31T03:11:33.695Z,2.97
2018-03-31T03:16:37.956Z,4.00
2018-03-31T03:19:08.292Z,3.53
2018-03-31T03:21:38.871Z,3.62
2018-03-31T03:24:09.956Z,3.13
2018-03-31T03:26:40.300Z,2.27
2018-03-31T03:30:01.888Z,2.57
2018-03-31T03:32:32.311Z,4.43
2018-03-31T03:35:02.793Z,3.35
2018-03-31T03:37:33.687Z,3.75
2018-03-31T03:40:03.795Z,2.30
2018-03-31T03:47:33.414Z,3.00
2018-03-31T03:50:03.871Z,3.37
2018-03-31T03:53:09.155Z,2.20
2018-03-31T03:57:51.967Z,2.80
2018-03-31T04:00:22.273Z,2.27
2018-03-31T04:02:52.324Z,1.98
2018-03-31T04:05:23.603Z,2.37
2018-03-31T04:07:53.800Z,2.17
2018-03-31T04:12:53.814Z,2.53
2018-03-31T04:15:24.406Z,2.40
2018-03-31T04:17:54.785Z,2.45
2018-03-31T04:22:55.622Z,3.63
2018-03-31T04:28:10.028Z,2.92
2018-03-31T04:30:40.416Z,2.00
2018-03-31T04:33:10.855Z,2.95
2018-03-31T04:36:51.026Z,1.83
2018-03-31T04:39:22.431Z,2.90
2018-03-31T04:41:52.369Z,3.12
2018-03-31T04:44:22.707Z,2.10
2018-03-31T04:49:22.716Z,2.17
2018-03-31T04:58:40.149Z,2.83
2018-03-31T05:01:10.302Z,3.03
2018-03-31T05:03:41.711Z,2.55
2018-03-31T05:11:11.712Z,2.37
2018-03-31T05:13:41.893Z,2.10
2018-03-31T05:16:12.506Z,1.90
2018-03-31T05:18:42.723Z,2.05
2018-03-31T05:23:42.807Z,1.80
2018-03-31T05:26:13.310Z,2.60
2018-03-31T05:28:43.645Z,2.75
2018-03-31T05:31:13.716Z,3.15
2018-03-31T05:33:44.913Z,2.90
2018-03-31T05:36:15.300Z,2.47
2018-03-31T05:38:45.632Z,3.08
2018-03-31T05:41:15.740Z,2.65
2018-03-31T05:46:15.803Z,3.40
2018-03-31T05:48:46.309Z,3.93
2018-03-31T05:51:16.730Z,2.67
2018-03-31T05:56:16.947Z,3.10
2018-03-31T05:58:47.329Z,4.03
2018-03-31T06:01:17.849Z,3.25
2018-03-31T06:03:48.198Z,3.60
2018-03-31T06:06:18.626Z,3.60
2018-03-31T06:08:49.725Z,3.20
2018-03-31T06:11:19.915Z,3.10
2018-03-31T06:13:50.354Z,2.30
2018-03-31T06:16:20.899Z,2.70
2018-03-31T06:18:51.233Z,3.43
2018-03-31T06:21:21.748Z,2.73
2018-03-31T06:28:51.757Z,2.58
2018-03-31T06:33:51.824Z,2.35
2018-03-31T06:36:22.447Z,2.47
2018-03-31T06:38:53.730Z,3.10
2018-03-31T06:43:54.014Z,2.75
2018-03-31T06:46:24.365Z,3.17
2018-03-31T06:48:54.922Z,3.72
2018-03-31T06:51:25.331Z,4.03
2018-03-31T06:53:56.147Z,3.65
2018-03-31T06:56:26.760Z,3.10
2018-03-31T07:01:26.758Z,4.18
2018-03-31T07:06:26.874Z,3.22
2018-03-31T07:08:57.188Z,4.33
2018-03-31T07:11:27.748Z,3.80
2018-03-31T07:15:55.470Z,5.72
2018-03-31T07:20:49.947Z,6.37
2018-03-31T07:24:12.041Z,4.43
2018-03-31T07:26:42.943Z,4.90
2018-03-31T07:29:13.911Z,4.77
2018-03-31T07:31:44.834Z,3.43
2018-03-31T07:34:15.770Z,4.30
2018-03-31T07:39:16.925Z,3.67
2018-03-31T07:41:48.094Z,3.03
2018-03-31T07:44:18.892Z,4.17
2018-03-31T07:49:19.057Z,3.03
2018-03-31T07:51:50.443Z,3.87
2018-03-31T07:54:21.770Z,3.78
2018-03-31T07:59:22.902Z,3.40
2018-03-31T08:01:54.120Z,5.20
2018-03-31T08:04:25.135Z,3.87
2018-03-31T08:06:55.878Z,2.57
2018-03-31T08:09:26.983Z,5.47
2018-03-31T08:11:58.132Z,3.13
2018-03-31T08:14:29.042Z,5.00
2018-03-31T08:16:59.814Z,2.80
2018-03-31T08:22:00.903Z,3.03
2018-03-31T08:24:31.816Z,2.77
2018-03-31T08:29:33.075Z,2.37
2018-03-31T08:32:04.182Z,2.57
2018-03-31T08:34:35.273Z,3.33
2018-03-31T08:37:06.952Z,3.00
2018-03-31T08:39:37.949Z,3.20
2018-03-31T08:42:08.895Z,2.80
2018-03-31T08:44:40.104Z,2.87
2018-03-31T08:47:11.111Z,2.10
2018-03-31T08:49:41.875Z,4.10
2018-03-31T08:54:44.112Z,2.20
2018-03-31T08:57:15.007Z,2.10
2018-03-31T08:59:46.181Z,2.20
2018-03-31T09:02:17.128Z,3.33
2018-03-31T09:04:47.981Z,2.17
2018-03-31T09:07:18.768Z,4.17
2018-03-31T09:12:21.071Z,4.17
2018-03-31T09:14:52.233Z,2.07
2018-03-31T09:17:23.173Z,3.80
2018-03-31T09:19:54.296Z,2.70
2018-03-31T09:22:25.740Z,3.23
2018-03-31T09:27:27.966Z,3.25
2018-03-31T09:29:59.098Z,3.60
2018-03-31T09:32:30.020Z,2.80
2018-03-31T09:35:01.133Z,4.87
2018-03-31T09:37:31.962Z,3.33
2018-03-31T09:40:03.108Z,3.53
2018-03-31T09:42:33.772Z,4.23
2018-03-31T09:47:36.094Z,2.00
2018-03-31T09:50:07.014Z,2.30
2018-03-31T09:52:38.165Z,3.00
2018-03-31T09:55:08.903Z,4.57
2018-03-31T09:57:40.714Z,3.80
2018-03-31T10:00:12.230Z,2.90
2018-03-31T10:02:43.783Z,2.47
2018-03-31T10:05:15.103Z,3.80
2018-03-31T10:07:46.242Z,3.87
2018-03-31T10:10:17.312Z,2.13
2018-03-31T10:12:49.146Z,2.40
2018-03-31T10:15:20.108Z,2.63
2018-03-31T10:17:51.000Z,2.30
2018-03-31T10:20:23.373Z,2.57
2018-03-31T10:22:55.040Z,2.73
2018-03-31T10:25:26.071Z,2.13
2018-03-31T10:27:56.797Z,2.70
2018-03-31T10:32:58.202Z,3.67
2018-03-31T10:35:29.255Z,4.50
2018-03-31T10:38:00.297Z,2.73
2018-03-31T10:40:31.291Z,3.37
2018-03-31T10:43:01.983Z,2.60
2018-03-31T10:45:32.789Z,2.70
2018-03-31T10:48:03.803Z,3.57
2018-03-31T10:53:04.886Z,2.70
2018-03-31T10:55:36.111Z,3.67
2018-03-31T10:58:07.079Z,2.60
2018-03-31T11:00:37.813Z,4.23
2018-03-31T11:03:08.991Z,2.43
2018-03-31T11:05:39.802Z,3.17
2018-03-31T11:10:41.132Z,3.23
2018-03-31T11:13:12.250Z,2.67
2018-03-31T11:16:11.937Z,2.60
2018-03-31T11:18:43.225Z,2.20
2018-03-31T11:21:14.102Z,2.43
2018-03-31T11:23:45.065Z,3.30
2018-03-31T11:26:16.422Z,3.07
2018-03-31T11:28:47.426Z,3.08
2018-03-31T11:31:18.990Z,2.37
2018-03-31T11:33:50.038Z,2.70
2018-03-31T11:36:21.506Z,2.83
2018-03-31T11:38:53.212Z,2.47
2018-03-31T11:41:24.161Z,2.30
2018-03-31T11:43:55.102Z,2.50
2018-03-31T11:46:26.047Z,2.20
2018-03-31T11:48:57.125Z,2.77
2018-03-31T11:51:28.129Z,2.93
2018-03-31T11:53:58.977Z,2.00
2018-03-31T11:56:29.919Z,4.67
2018-03-31T11:59:01.728Z,3.10
2018-03-31T12:01:32.818Z,2.83
2018-03-31T12:06:33.814Z,3.27
2018-03-31T12:09:04.424Z,3.30
2018-03-31T12:11:36.247Z,2.62
2018-03-31T12:14:06.994Z,3.53
2018-03-31T12:16:38.433Z,2.20
2018-03-31T12:19:09.725Z,2.90
2018-03-31T12:21:41.025Z,3.60
2018-03-31T12:24:12.182Z,2.17
2018-03-31T12:26:43.268Z,3.20
2018-03-31T12:29:14.064Z,2.67
2018-03-31T12:31:45.195Z,2.73
2018-03-31T12:34:16.235Z,3.10
2018-03-31T12:36:47.263Z,2.70
2018-03-31T12:39:18.201Z,2.87
2018-03-31T12:41:49.167Z,3.03
2018-03-31T12:44:20.306Z,2.27
2018-03-31T12:46:51.829Z,2.40
2018-03-31T12:51:53.333Z,2.70
2018-03-31T12:54:24.262Z,2.93
2018-03-31T12:56:55.202Z,2.20
2018-03-31T12:59:26.304Z,2.73
2018-03-31T13:01:57.294Z,2.10
2018-03-31T13:04:28.216Z,2.83
2018-03-31T13:06:59.005Z,3.10
2018-03-31T13:09:29.822Z,2.17
2018-03-31T13:12:01.253Z,2.60
2018-03-31T13:14:32.009Z,2.60
2018-03-31T13:17:03.124Z,2.27
2018-03-31T13:19:34.229Z,2.50
2018-03-31T13:22:05.009Z,2.87
2018-03-31T13:24:37.033Z,3.00
2018-03-31T13:27:07.929Z,3.63
2018-03-31T13:29:38.838Z,2.70
2018-03-31T13:34:41.341Z,2.43
2018-03-31T13:37:12.991Z,2.23
2018-03-31T13:39:44.035Z,2.37
2018-03-31T13:42:15.180Z,3.07
2018-03-31T13:44:46.109Z,1.67
2018-03-31T13:47:17.252Z,2.40
2018-03-31T13:49:48.194Z,2.30
2018-03-31T13:52:19.146Z,2.10
2018-03-31T13:54:50.095Z,2.60
2018-03-31T13:57:20.831Z,1.80
2018-03-31T13:59:52.151Z,2.20
2018-03-31T14:02:22.931Z,3.40
2018-03-31T14:04:53.838Z,2.60
2018-03-31T14:09:54.963Z,3.20
2018-03-31T14:12:26.263Z,2.53
2018-03-31T14:14:57.203Z,2.10
2018-03-31T14:17:28.143Z,2.30
2018-03-31T14:19:59.041Z,2.57
2018-03-31T14:22:30.198Z,2.10
2018-03-31T14:25:01.027Z,2.60
2018-03-31T14:27:32.119Z,2.60
2018-03-31T14:30:02.955Z,1.80
2018-03-31T14:32:34.092Z,2.53
2018-03-31T14:35:05.323Z,2.93
2018-03-31T14:37:36.447Z,2.17
2018-03-31T14:40:08.406Z,1.92
2018-03-31T14:42:40.022Z,2.72
2018-03-31T14:45:11.012Z,2.10
2018-03-31T14:47:42.283Z,3.33
2018-03-31T14:50:13.026Z,2.57
2018-03-31T14:52:45.034Z,2.73
2018-03-31T14:55:16.111Z,3.60
2018-03-31T14:57:47.251Z,2.20
2018-03-31T15:00:19.207Z,2.77
2018-03-31T15:02:50.040Z,2.83
2018-03-31T15:05:20.964Z,3.50
2018-03-31T15:07:51.872Z,3.50
2018-03-31T15:12:53.594Z,3.20
2018-03-31T15:15:25.221Z,2.03
2018-03-31T15:17:56.107Z,3.80
2018-03-31T15:20:27.817Z,3.07
2018-03-31T15:22:59.118Z,2.37
2018-03-31T15:25:30.769Z,3.63
2018-03-31T15:31:20.861Z,4.03
2018-03-31T15:33:51.820Z,3.47
2018-03-31T15:38:53.300Z,2.80
2018-03-31T15:41:24.052Z,3.07
2018-03-31T15:43:54.856Z,2.77
2018-03-31T15:51:28.201Z,3.07
2018-03-31T15:53:59.085Z,5.00
2018-03-31T15:56:30.277Z,3.53
2018-03-31T15:59:01.455Z,3.00
2018-03-31T16:01:32.610Z,4.30
2018-03-31T16:04:03.954Z,3.10
2018-03-31T16:09:05.183Z,3.50
2018-03-31T16:11:36.124Z,2.93
2018-03-31T16:14:07.267Z,3.47
2018-03-31T16:16:38.121Z,2.30
2018-03-31T16:19:09.590Z,2.47
2018-03-31T16:21:41.041Z,3.53
2018-03-31T16:24:11.872Z,3.37
2018-03-31T16:29:13.313Z,3.63
2018-03-31T16:31:44.252Z,2.90
2018-03-31T16:34:14.512Z,2.80
2018-03-31T16:36:45.959Z,2.90
2018-03-31T16:39:16.887Z,2.80
2018-03-31T16:44:16.859Z,3.85
2018-03-31T16:49:16.877Z,2.50
2018-03-31T16:54:16.992Z,2.90
2018-03-31T16:56:47.515Z,3.67
2018-03-31T16:59:17.499Z,4.62
2018-03-31T17:01:47.880Z,3.78
2018-03-31T17:04:17.883Z,3.10
2018-03-31T17:09:18.020Z,3.30
2018-03-31T17:11:48.327Z,1.93
2018-03-31T17:14:18.486Z,3.13
2018-03-31T17:16:49.350Z,3.83
2018-03-31T17:19:19.798Z,2.95
2018-03-31T17:21:50.053Z,3.17
2018-03-31T17:24:20.519Z,3.23
2018-03-31T17:26:51.079Z,2.37
2018-03-31T17:29:21.496Z,3.10
2018-03-31T17:31:52.047Z,3.15
2018-03-31T17:34:22.472Z,4.50
2018-03-31T17:36:52.675Z,2.80
2018-03-31T17:39:23.074Z,2.83
2018-03-31T17:41:53.536Z,3.07
2018-03-31T17:44:24.057Z,2.53
2018-03-31T17:46:54.487Z,2.60
2018-03-31T17:49:25.008Z,2.85
2018-03-31T17:51:55.543Z,3.03
2018-03-31T17:54:26.797Z,2.92
2018-03-31T17:56:57.063Z,3.43
2018-03-31T17:59:27.495Z,1.50
2018-03-31T18:01:58.097Z,1.52
2018-03-31T18:04:28.616Z,3.10
2018-03-31T18:06:58.533Z,1.83
2018-03-31T18:09:29.023Z,3.15
2018-03-31T18:11:59.423Z,2.30
2018-03-31T18:16:41.897Z,3.05
2018-03-31T18:19:11.894Z,2.80
2018-03-31T18:21:42.103Z,2.80
2018-03-31T18:24:12.518Z,2.20
2018-03-31T18:26:42.895Z,3.58
2018-03-31T18:31:43.026Z,2.00
2018-03-31T18:34:13.530Z,3.60
2018-03-31T18:36:44.490Z,4.03
2018-03-31T18:39:14.880Z,3.08
2018-03-31T18:44:14.977Z,3.35
2018-03-31T18:49:14.897Z,2.25
2018-03-31T18:54:14.936Z,2.22
2018-03-31T18:59:15.064Z,3.10
2018-03-31T19:01:45.356Z,3.27
2018-03-31T19:04:15.684Z,2.87
2018-03-31T19:06:46.032Z,2.45
2018-03-31T19:09:16.473Z,1.87
2018-03-31T19:11:46.683Z,3.63
2018-03-31T19:14:16.987Z,5.15
2018-03-31T19:19:22.039Z,2.23
2018-03-31T19:26:52.626Z,2.60
2018-03-31T19:29:24.059Z,2.70
2018-03-31T19:31:55.141Z,2.90
2018-03-31T19:34:25.569Z,4.00
2018-03-31T19:36:56.030Z,3.40
2018-03-31T19:39:31.139Z,3.73
2018-03-31T19:42:01.504Z,2.77
2018-03-31T19:44:31.688Z,3.03
2018-03-31T19:47:01.907Z,7.37
2018-03-31T19:49:32.117Z,5.20
2018-03-31T19:52:02.543Z,4.93
2018-03-31T19:54:34.461Z,4.72
2018-03-31T19:57:04.819Z,4.25
2018-03-31T19:59:35.011Z,4.70
2018-03-31T20:02:05.556Z,5.60
2018-03-31T20:04:35.914Z,6.25
2018-03-31T20:07:05.930Z,4.73
2018-03-31T20:12:06.002Z,4.40
2018-03-31T20:14:36.447Z,4.10
2018-03-31T20:17:06.835Z,4.32
2018-03-31T20:19:37.433Z,4.72
2018-03-31T20:22:08.687Z,3.80
2018-03-31T20:24:39.101Z,3.17
2018-03-31T20:27:09.527Z,5.13
2018-03-31T20:29:39.926Z,5.87
2018-03-31T20:34:40.038Z,5.70
2018-03-31T20:37:10.557Z,5.67
2018-03-31T20:39:41.125Z,5.47
2018-03-31T20:42:11.540Z,5.57
2018-03-31T20:44:42.058Z,5.32
2018-03-31T20:47:12.572Z,4.30
2018-03-31T20:49:43.084Z,4.85
2018-03-31T20:52:13.644Z,6.87
2018-03-31T20:54:44.107Z,4.60
2018-03-31T20:57:16.020Z,5.07
2018-03-31T21:02:16.027Z,6.18
2018-03-31T21:04:46.115Z,4.80
2018-03-31T21:07:16.637Z,9.27
2018-03-31T21:09:47.196Z,4.30
2018-03-31T21:12:19.400Z,7.23
2018-03-31T21:14:51.005Z,7.00
2018-03-31T21:19:51.006Z,10.00
2018-03-31T21:24:51.114Z,11.80
2018-03-31T21:27:21.512Z,9.63
2018-03-31T21:29:51.909Z,10.82
2018-03-31T21:34:53.179Z,11.93
2018-03-31T21:37:24.118Z,12.13
2018-03-31T21:39:54.506Z,11.67
2018-03-31T21:42:24.965Z,10.68
2018-03-31T21:44:55.020Z,13.70
2018-03-31T21:47:25.544Z,12.40
2018-03-31T21:49:55.941Z,14.38
2018-03-31T21:54:55.951Z,14.98
2018-03-31T21:59:56.888Z,12.50
2018-03-31T22:02:27.048Z,12.80
2018-03-31T22:04:57.554Z,12.63
2018-03-31T22:07:27.941Z,11.73
2018-03-31T22:12:28.859Z,14.70
2018-03-31T22:15:04.115Z,12.85
2018-03-31T22:17:34.554Z,12.17
2018-03-31T22:20:05.070Z,12.73
2018-03-31T22:25:05.074Z,13.20
2018-03-31T22:27:35.543Z,11.37
2018-03-31T22:30:06.940Z,11.32
2018-03-31T22:35:07.833Z,10.65
2018-03-31T22:37:38.142Z,10.20
2018-03-31T22:40:08.560Z,11.17
2018-03-31T22:42:38.956Z,11.30
2018-03-31T22:47:39.027Z,11.95
2018-03-31T22:52:39.952Z,10.73
2018-03-31T22:57:40.912Z,10.60
2018-03-31T23:00:11.130Z,9.27
2018-03-31T23:02:41.600Z,9.23
2018-03-31T23:05:12.957Z,7.30
2018-03-31T23:10:16.010Z,9.38
2018-03-31T23:12:47.392Z,7.33
2018-03-31T23:15:17.667Z,7.50
2018-03-31T23:17:49.095Z,6.93
2018-03-31T23:20:19.561Z,8.50
2018-03-31T23:22:50.666Z,5.85
2018-03-31T23:25:20.592Z,7.47
2018-03-31T23:27:51.926Z,7.93
2018-03-31T23:30:22.122Z,7.30
2018-03-31T23:32:53.210Z,7.50
2018-03-31T23:35:23.637Z,6.17
2018-03-31T23:37:54.928Z,7.75
2018-03-31T23:40:25.025Z,7.40
2018-03-31T23:45:26.281Z,8.98
2018-03-31T23:47:56.547Z,6.63
2018-03-31T23:50:26.881Z,8.65
2018-03-31T23:52:58.156Z,5.72
2018-03-31T23:55:28.703Z,7.27
